Hauptseite
METAR-TAF:

METAR-TAF

Flughäfen :

Maastricht Aachen, Niederlande

Maastricht Aachen Airport

Breite: 50-55N, Länge: 005-47E, Höhe: 114 m

Beobachtung

Neuester Wetterbericht von vor 29 Minuten, um 09:25 UTC
Wind 6 kt aus Südost, variierte zwischen Ost und Süd
Temperatur 25°C
Luftfeuchtigkeit 34%
Luftdruck 1026 hPa
Sichtweite 10 km oder mehr

METAR: EHBK 190925Z AUTO 14006KT 090V170 9999 NSC 25/08 Q1026 NOSIG

Zeit: 11:54 (09:54 UTC)

Prognose

Neuester Wetterbericht von vor 5 Stunden und 4 Minuten, um 04:50 UTC
Gültige Prognose vom 19 um 06 UTC bis 20 um 12 UTC
Wind 5 kt aus Ost/Südost
Sichtweite 10 km oder mehr
keine Wolken unter 1500 m und keine Kumulonimbus oder Gewitterwolken

TAF: EHBK 190450Z 1906/2012 12005KT CAVOK

Wetterbeobachtungen und Prognosen von mehr als 4000 Flughäfen (METAR und TAF Bericht).

Die verfügbaren Stationen werden durch gelbe und rote Markierungen auf der Karte dargestellt.

Führen Sie die Maus auf sie, um den Namen der Station zu sehen.

Darauf klicken, um die Beobachtung von Wetterbeobachtungen und Prognosen zu sehen.

Um die Karte zu ändern : klicken Sie auf den grünen Tasten mit einem schwarzen Kreuz Zum Vergrößern, auf den grünen Button mit einem Gedankenstrich zu verkleinern, oder auf die grünen Pfeile für benachbarte Karten.


METAR-TAF: